sensor_id;sensor_type;location;lat;lon;timestamp;temperature;humidity
32217;DHT22;67098;51.140;4.088;2023-07-31T00:01:55;19.10;97.00
32217;DHT22;67098;51.140;4.088;2023-07-31T00:04:21;19.10;97.10
32217;DHT22;67098;51.140;4.088;2023-07-31T00:06:46;19.20;96.90
32217;DHT22;67098;51.140;4.088;2023-07-31T00:09:12;19.20;96.80
32217;DHT22;67098;51.140;4.088;2023-07-31T00:11:38;19.10;96.90
32217;DHT22;67098;51.140;4.088;2023-07-31T00:14:04;19.10;97.00
32217;DHT22;67098;51.140;4.088;2023-07-31T00:16:30;19.10;96.90
32217;DHT22;67098;51.140;4.088;2023-07-31T00:18:55;19.10;96.90
32217;DHT22;67098;51.140;4.088;2023-07-31T00:21:21;19.20;96.90
32217;DHT22;67098;51.140;4.088;2023-07-31T00:23:47;19.30;96.50
32217;DHT22;67098;51.140;4.088;2023-07-31T00:26:12;19.40;96.40
32217;DHT22;67098;51.140;4.088;2023-07-31T00:28:38;19.50;96.30
32217;DHT22;67098;51.140;4.088;2023-07-31T00:31:04;19.40;96.30
32217;DHT22;67098;51.140;4.088;2023-07-31T00:33:31;19.30;96.50
32217;DHT22;67098;51.140;4.088;2023-07-31T00:35:57;19.40;96.00
32217;DHT22;67098;51.140;4.088;2023-07-31T00:38:22;19.30;96.20
32217;DHT22;67098;51.140;4.088;2023-07-31T00:40:48;19.30;96.00
32217;DHT22;67098;51.140;4.088;2023-07-31T00:43:14;19.30;96.10
32217;DHT22;67098;51.140;4.088;2023-07-31T00:45:40;19.30;96.00
32217;DHT22;67098;51.140;4.088;2023-07-31T00:48:06;19.30;96.00
32217;DHT22;67098;51.140;4.088;2023-07-31T00:50:33;19.30;95.90
32217;DHT22;67098;51.140;4.088;2023-07-31T00:52:59;19.20;96.20
32217;DHT22;67098;51.140;4.088;2023-07-31T00:55:24;19.20;96.20
32217;DHT22;67098;51.140;4.088;2023-07-31T00:57:51;19.30;96.00
32217;DHT22;67098;51.140;4.088;2023-07-31T01:00:18;19.30;96.10
32217;DHT22;67098;51.140;4.088;2023-07-31T01:02:44;19.20;96.00
32217;DHT22;67098;51.140;4.088;2023-07-31T01:05:10;19.20;96.10
32217;DHT22;67098;51.140;4.088;2023-07-31T01:07:52;19.20;96.10
32217;DHT22;67098;51.140;4.088;2023-07-31T01:10:23;19.40;95.80
32217;DHT22;67098;51.140;4.088;2023-07-31T01:12:51;19.40;95.70
32217;DHT22;67098;51.140;4.088;2023-07-31T01:15:19;19.30;95.60
32217;DHT22;67098;51.140;4.088;2023-07-31T01:17:46;19.40;95.80
32217;DHT22;67098;51.140;4.088;2023-07-31T01:20:21;19.30;95.90
32217;DHT22;67098;51.140;4.088;2023-07-31T01:31:03;19.20;95.80
32217;DHT22;67098;51.140;4.088;2023-07-31T01:33:33;19.20;96.00
32217;DHT22;67098;51.140;4.088;2023-07-31T01:35:59;19.20;96.00
32217;DHT22;67098;51.140;4.088;2023-07-31T01:38:25;19.20;95.90
32217;DHT22;67098;51.140;4.088;2023-07-31T01:40:52;19.20;95.80
32217;DHT22;67098;51.140;4.088;2023-07-31T01:43:18;19.20;96.20
32217;DHT22;67098;51.140;4.088;2023-07-31T01:45:44;19.20;95.90
32217;DHT22;67098;51.140;4.088;2023-07-31T01:48:10;19.30;95.70
32217;DHT22;67098;51.140;4.088;2023-07-31T01:50:35;19.20;96.10
32217;DHT22;67098;51.140;4.088;2023-07-31T01:53:01;19.30;96.10
32217;DHT22;67098;51.140;4.088;2023-07-31T01:55:27;19.20;96.10
32217;DHT22;67098;51.140;4.088;2023-07-31T01:57:53;19.20;96.30
32217;DHT22;67098;51.140;4.088;2023-07-31T02:00:19;19.10;96.50
32217;DHT22;67098;51.140;4.088;2023-07-31T02:02:44;19.10;96.40
32217;DHT22;67098;51.140;4.088;2023-07-31T02:05:10;19.30;96.10
32217;DHT22;67098;51.140;4.088;2023-07-31T02:07:36;19.30;96.10
32217;DHT22;67098;51.140;4.088;2023-07-31T02:10:03;19.20;96.40
32217;DHT22;67098;51.140;4.088;2023-07-31T02:12:29;19.10;96.70
32217;DHT22;67098;51.140;4.088;2023-07-31T02:14:57;19.10;96.50
32217;DHT22;67098;51.140;4.088;2023-07-31T02:17:23;19.20;96.60
32217;DHT22;67098;51.140;4.088;2023-07-31T02:19:49;19.10;96.60
32217;DHT22;67098;51.140;4.088;2023-07-31T02:22:14;19.30;96.30
32217;DHT22;67098;51.140;4.088;2023-07-31T02:24:40;19.40;96.20
32217;DHT22;67098;51.140;4.088;2023-07-31T02:27:06;19.30;96.10
32217;DHT22;67098;51.140;4.088;2023-07-31T02:29:31;19.30;96.20
32217;DHT22;67098;51.140;4.088;2023-07-31T02:31:57;19.50;96.00
32217;DHT22;67098;51.140;4.088;2023-07-31T02:34:23;19.60;95.90
32217;DHT22;67098;51.140;4.088;2023-07-31T02:36:49;19.60;95.80
32217;DHT22;67098;51.140;4.088;2023-07-31T02:39:14;19.60;95.90
32217;DHT22;67098;51.140;4.088;2023-07-31T02:41:40;19.60;96.00
32217;DHT22;67098;51.140;4.088;2023-07-31T02:44:06;19.50;95.90
32217;DHT22;67098;51.140;4.088;2023-07-31T02:46:31;19.60;96.00
32217;DHT22;67098;51.140;4.088;2023-07-31T02:48:57;19.70;96.00
32217;DHT22;67098;51.140;4.088;2023-07-31T02:51:23;19.70;95.80
32217;DHT22;67098;51.140;4.088;2023-07-31T02:53:49;19.80;95.50
32217;DHT22;67098;51.140;4.088;2023-07-31T02:56:15;19.90;95.50
32217;DHT22;67098;51.140;4.088;2023-07-31T02:58:40;19.90;95.50
32217;DHT22;67098;51.140;4.088;2023-07-31T03:01:06;19.90;95.40
32217;DHT22;67098;51.140;4.088;2023-07-31T03:03:32;19.90;95.70
32217;DHT22;67098;51.140;4.088;2023-07-31T03:05:58;19.80;96.10
32217;DHT22;67098;51.140;4.088;2023-07-31T03:08:23;19.80;96.10
32217;DHT22;67098;51.140;4.088;2023-07-31T03:10:49;19.90;96.20
32217;DHT22;67098;51.140;4.088;2023-07-31T03:13:15;19.80;96.30
32217;DHT22;67098;51.140;4.088;2023-07-31T03:15:43;19.80;96.50
32217;DHT22;67098;51.140;4.088;2023-07-31T03:18:09;19.80;96.50
32217;DHT22;67098;51.140;4.088;2023-07-31T03:20:35;19.80;96.60
32217;DHT22;67098;51.140;4.088;2023-07-31T03:23:01;19.70;96.90
32217;DHT22;67098;51.140;4.088;2023-07-31T03:25:26;19.80;97.00
32217;DHT22;67098;51.140;4.088;2023-07-31T03:27:52;19.90;96.80
32217;DHT22;67098;51.140;4.088;2023-07-31T03:30:18;19.90;96.90
32217;DHT22;67098;51.140;4.088;2023-07-31T03:32:44;19.80;97.10
32217;DHT22;67098;51.140;4.088;2023-07-31T03:35:09;19.80;97.10
32217;DHT22;67098;51.140;4.088;2023-07-31T03:37:35;19.80;97.20
32217;DHT22;67098;51.140;4.088;2023-07-31T03:40:01;19.80;97.40
32217;DHT22;67098;51.140;4.088;2023-07-31T03:42:27;19.70;97.70
32217;DHT22;67098;51.140;4.088;2023-07-31T03:44:53;19.70;97.80
32217;DHT22;67098;51.140;4.088;2023-07-31T03:47:19;19.50;98.20
32217;DHT22;67098;51.140;4.088;2023-07-31T03:49:45;19.60;98.20
32217;DHT22;67098;51.140;4.088;2023-07-31T03:52:10;19.50;98.40
32217;DHT22;67098;51.140;4.088;2023-07-31T03:54:36;19.60;98.30
32217;DHT22;67098;51.140;4.088;2023-07-31T03:57:02;19.70;98.30
32217;DHT22;67098;51.140;4.088;2023-07-31T03:59:28;19.60;98.50
32217;DHT22;67098;51.140;4.088;2023-07-31T04:01:53;19.60;98.70
32217;DHT22;67098;51.140;4.088;2023-07-31T04:04:19;19.50;98.80
32217;DHT22;67098;51.140;4.088;2023-07-31T04:06:45;19.60;98.80
32217;DHT22;67098;51.140;4.088;2023-07-31T04:09:11;19.60;98.90
32217;DHT22;67098;51.140;4.088;2023-07-31T04:11:36;19.60;98.90
32217;DHT22;67098;51.140;4.088;2023-07-31T04:14:02;19.50;99.20
32217;DHT22;67098;51.140;4.088;2023-07-31T04:16:28;19.60;99.10
32217;DHT22;67098;51.140;4.088;2023-07-31T04:18:54;19.60;99.20
32217;DHT22;67098;51.140;4.088;2023-07-31T04:21:19;19.50;99.30
32217;DHT22;67098;51.140;4.088;2023-07-31T04:23:45;19.60;99.20
32217;DHT22;67098;51.140;4.088;2023-07-31T04:26:11;19.60;99.10
32217;DHT22;67098;51.140;4.088;2023-07-31T04:28:37;19.60;99.20
32217;DHT22;67098;51.140;4.088;2023-07-31T04:31:03;19.50;99.30
32217;DHT22;67098;51.140;4.088;2023-07-31T04:33:29;19.60;99.40
32217;DHT22;67098;51.140;4.088;2023-07-31T04:35:54;19.60;99.30
32217;DHT22;67098;51.140;4.088;2023-07-31T04:38:21;19.60;99.50
32217;DHT22;67098;51.140;4.088;2023-07-31T04:40:47;19.50;99.60
32217;DHT22;67098;51.140;4.088;2023-07-31T04:43:13;19.60;99.60
32217;DHT22;67098;51.140;4.088;2023-07-31T04:45:41;19.60;99.70
32217;DHT22;67098;51.140;4.088;2023-07-31T04:48:07;19.60;99.50
32217;DHT22;67098;51.140;4.088;2023-07-31T04:50:33;19.50;99.60
32217;DHT22;67098;51.140;4.088;2023-07-31T04:52:58;19.50;99.90
32217;DHT22;67098;51.140;4.088;2023-07-31T04:55:24;19.40;99.90
32217;DHT22;67098;51.140;4.088;2023-07-31T04:57:50;19.30;99.90
32217;DHT22;67098;51.140;4.088;2023-07-31T05:00:16;19.30;99.90
32217;DHT22;67098;51.140;4.088;2023-07-31T05:02:41;19.30;99.90
32217;DHT22;67098;51.140;4.088;2023-07-31T05:05:07;19.30;99.90
32217;DHT22;67098;51.140;4.088;2023-07-31T05:07:33;19.20;99.90
32217;DHT22;67098;51.140;4.088;2023-07-31T05:09:59;19.20;99.90
32217;DHT22;67098;51.140;4.088;2023-07-31T05:12:25;19.20;99.90
32217;DHT22;67098;51.140;4.088;2023-07-31T05:14:50;19.20;99.90
32217;DHT22;67098;51.140;4.088;2023-07-31T05:17:16;19.10;99.90
32217;DHT22;67098;51.140;4.088;2023-07-31T05:19:42;19.20;99.90
32217;DHT22;67098;51.140;4.088;2023-07-31T05:22:08;19.10;99.90
32217;DHT22;67098;51.140;4.088;2023-07-31T05:24:33;19.10;99.90
32217;DHT22;67098;51.140;4.088;2023-07-31T05:26:59;19.20;99.90
32217;DHT22;67098;51.140;4.088;2023-07-31T05:29:25;19.30;99.90
32217;DHT22;67098;51.140;4.088;2023-07-31T05:31:50;19.40;99.90
32217;DHT22;67098;51.140;4.088;2023-07-31T05:34:16;19.50;99.90
32217;DHT22;67098;51.140;4.088;2023-07-31T05:36:42;19.50;99.90
32217;DHT22;67098;51.140;4.088;2023-07-31T05:39:08;19.50;99.90
32217;DHT22;67098;51.140;4.088;2023-07-31T05:41:34;19.50;99.90
32217;DHT22;67098;51.140;4.088;2023-07-31T05:44:00;19.70;99.90
32217;DHT22;67098;51.140;4.088;2023-07-31T05:46:26;19.50;99.90
32217;DHT22;67098;51.140;4.088;2023-07-31T05:48:52;19.50;99.90
32217;DHT22;67098;51.140;4.088;2023-07-31T05:51:17;19.60;99.90
32217;DHT22;67098;51.140;4.088;2023-07-31T05:53:43;19.60;99.90
32217;DHT22;67098;51.140;4.088;2023-07-31T05:56:09;19.60;99.90
32217;DHT22;67098;51.140;4.088;2023-07-31T05:58:35;19.60;99.90
32217;DHT22;67098;51.140;4.088;2023-07-31T06:01:00;19.50;99.90
32217;DHT22;67098;51.140;4.088;2023-07-31T06:03:26;19.50;99.90
32217;DHT22;67098;51.140;4.088;2023-07-31T06:05:52;19.50;99.90
32217;DHT22;67098;51.140;4.088;2023-07-31T06:08:18;19.60;99.90
32217;DHT22;67098;51.140;4.088;2023-07-31T06:10:43;19.60;99.90
32217;DHT22;67098;51.140;4.088;2023-07-31T06:13:09;19.60;99.90
32217;DHT22;67098;51.140;4.088;2023-07-31T06:15:35;19.80;99.90
32217;DHT22;67098;51.140;4.088;2023-07-31T06:18:01;19.80;99.90
32217;DHT22;67098;51.140;4.088;2023-07-31T06:20:28;19.90;99.80
32217;DHT22;67098;51.140;4.088;2023-07-31T06:22:54;19.70;99.90
32217;DHT22;67098;51.140;4.088;2023-07-31T06:25:19;19.80;99.90
32217;DHT22;67098;51.140;4.088;2023-07-31T06:27:45;19.90;99.80
32217;DHT22;67098;51.140;4.088;2023-07-31T06:30:11;19.90;99.80
32217;DHT22;67098;51.140;4.088;2023-07-31T06:32:37;19.80;99.90
32217;DHT22;67098;51.140;4.088;2023-07-31T06:35:03;19.80;99.90
32217;DHT22;67098;51.140;4.088;2023-07-31T06:37:29;20.00;99.80
32217;DHT22;67098;51.140;4.088;2023-07-31T06:39:55;20.10;99.70
32217;DHT22;67098;51.140;4.088;2023-07-31T06:42:21;20.00;99.60
32217;DHT22;67098;51.140;4.088;2023-07-31T06:44:46;20.00;99.70
32217;DHT22;67098;51.140;4.088;2023-07-31T06:47:12;20.10;99.50
32217;DHT22;67098;51.140;4.088;2023-07-31T06:49:38;20.10;99.60
32217;DHT22;67098;51.140;4.088;2023-07-31T06:52:04;20.20;99.20
32217;DHT22;67098;51.140;4.088;2023-07-31T06:54:30;20.20;99.20
32217;DHT22;67098;51.140;4.088;2023-07-31T06:56:55;20.30;99.20
32217;DHT22;67098;51.140;4.088;2023-07-31T06:59:21;20.20;99.10
32217;DHT22;67098;51.140;4.088;2023-07-31T07:01:47;20.30;99.10
32217;DHT22;67098;51.140;4.088;2023-07-31T07:04:13;20.20;99.10
32217;DHT22;67098;51.140;4.088;2023-07-31T07:06:40;20.30;99.10
32217;DHT22;67098;51.140;4.088;2023-07-31T07:09:05;20.20;99.10
32217;DHT22;67098;51.140;4.088;2023-07-31T07:11:31;20.20;98.90
32217;DHT22;67098;51.140;4.088;2023-07-31T07:13:57;20.30;99.00
32217;DHT22;67098;51.140;4.088;2023-07-31T07:16:23;20.30;99.00
32217;DHT22;67098;51.140;4.088;2023-07-31T07:18:48;20.20;99.00
32217;DHT22;67098;51.140;4.088;2023-07-31T07:21:14;20.20;99.00
32217;DHT22;67098;51.140;4.088;2023-07-31T07:23:42;20.20;98.70
32217;DHT22;67098;51.140;4.088;2023-07-31T07:26:08;20.10;98.90
32217;DHT22;67098;51.140;4.088;2023-07-31T07:28:33;20.10;98.80
32217;DHT22;67098;51.140;4.088;2023-07-31T07:30:59;20.30;98.40
32217;DHT22;67098;51.140;4.088;2023-07-31T07:33:25;20.40;98.20
32217;DHT22;67098;51.140;4.088;2023-07-31T07:35:51;20.50;98.30
32217;DHT22;67098;51.140;4.088;2023-07-31T07:38:16;20.30;98.40
32217;DHT22;67098;51.140;4.088;2023-07-31T07:40:42;20.40;98.20
32217;DHT22;67098;51.140;4.088;2023-07-31T07:43:08;20.40;98.30
32217;DHT22;67098;51.140;4.088;2023-07-31T07:45:34;20.50;98.40
32217;DHT22;67098;51.140;4.088;2023-07-31T07:47:59;20.60;98.30
32217;DHT22;67098;51.140;4.088;2023-07-31T07:50:25;20.90;98.00
32217;DHT22;67098;51.140;4.088;2023-07-31T07:52:51;21.20;97.40
32217;DHT22;67098;51.140;4.088;2023-07-31T07:55:17;21.30;97.10
32217;DHT22;67098;51.140;4.088;2023-07-31T07:57:42;21.30;96.80
32217;DHT22;67098;51.140;4.088;2023-07-31T08:00:11;21.40;96.50
32217;DHT22;67098;51.140;4.088;2023-07-31T08:02:37;21.40;96.70
32217;DHT22;67098;51.140;4.088;2023-07-31T08:05:03;21.20;96.60
32217;DHT22;67098;51.140;4.088;2023-07-31T08:07:29;21.10;96.90
32217;DHT22;67098;51.140;4.088;2023-07-31T08:09:55;21.10;97.00
32217;DHT22;67098;51.140;4.088;2023-07-31T08:12:21;21.10;97.10
32217;DHT22;67098;51.140;4.088;2023-07-31T08:14:47;21.00;97.00
32217;DHT22;67098;51.140;4.088;2023-07-31T08:17:12;20.90;97.50
32217;DHT22;67098;51.140;4.088;2023-07-31T08:19:40;20.90;97.70
32217;DHT22;67098;51.140;4.088;2023-07-31T08:22:06;21.10;97.60
32217;DHT22;67098;51.140;4.088;2023-07-31T08:24:32;21.20;97.20
32217;DHT22;67098;51.140;4.088;2023-07-31T08:26:57;21.40;96.80
32217;DHT22;67098;51.140;4.088;2023-07-31T08:29:23;21.40;96.40
32217;DHT22;67098;51.140;4.088;2023-07-31T08:31:50;21.50;96.40
32217;DHT22;67098;51.140;4.088;2023-07-31T08:34:15;21.40;96.60
32217;DHT22;67098;51.140;4.088;2023-07-31T08:36:42;21.40;96.60
32217;DHT22;67098;51.140;4.088;2023-07-31T08:39:09;21.60;96.40
32217;DHT22;67098;51.140;4.088;2023-07-31T08:41:38;21.80;96.20
32217;DHT22;67098;51.140;4.088;2023-07-31T08:44:05;21.80;95.90
32217;DHT22;67098;51.140;4.088;2023-07-31T08:46:32;21.70;95.80
32217;DHT22;67098;51.140;4.088;2023-07-31T08:48:59;21.60;95.90
32217;DHT22;67098;51.140;4.088;2023-07-31T08:51:26;21.60;95.90
32217;DHT22;67098;51.140;4.088;2023-07-31T08:53:53;21.60;96.30
32217;DHT22;67098;51.140;4.088;2023-07-31T08:56:19;21.90;96.10
32217;DHT22;67098;51.140;4.088;2023-07-31T08:58:46;22.30;95.80
32217;DHT22;67098;51.140;4.088;2023-07-31T09:01:13;22.90;95.00
32217;DHT22;67098;51.140;4.088;2023-07-31T09:03:40;23.30;94.10
32217;DHT22;67098;51.140;4.088;2023-07-31T09:06:07;23.60;93.60
32217;DHT22;67098;51.140;4.088;2023-07-31T09:08:33;24.00;93.20
32217;DHT22;67098;51.140;4.088;2023-07-31T09:11:01;24.40;92.50
32217;DHT22;67098;51.140;4.088;2023-07-31T09:13:30;24.30;91.90
32217;DHT22;67098;51.140;4.088;2023-07-31T09:15:56;24.30;92.20
32217;DHT22;67098;51.140;4.088;2023-07-31T09:18:22;24.50;92.00
32217;DHT22;67098;51.140;4.088;2023-07-31T09:23:40;24.90;90.90
32217;DHT22;67098;51.140;4.088;2023-07-31T09:26:06;24.90;91.20
32217;DHT22;67098;51.140;4.088;2023-07-31T09:28:32;24.80;91.50
32217;DHT22;67098;51.140;4.088;2023-07-31T09:30:57;24.50;91.60
32217;DHT22;67098;51.140;4.088;2023-07-31T09:33:23;24.20;91.70
32217;DHT22;67098;51.140;4.088;2023-07-31T09:35:49;24.10;92.30
32217;DHT22;67098;51.140;4.088;2023-07-31T09:38:15;24.00;92.30
32217;DHT22;67098;51.140;4.088;2023-07-31T09:40:46;24.10;92.30
32217;DHT22;67098;51.140;4.088;2023-07-31T09:43:16;23.70;92.70
32217;DHT22;67098;51.140;4.088;2023-07-31T09:45:43;23.80;93.00
32217;DHT22;67098;51.140;4.088;2023-07-31T09:48:17;24.00;93.00
32217;DHT22;67098;51.140;4.088;2023-07-31T09:50:45;24.30;92.40
32217;DHT22;67098;51.140;4.088;2023-07-31T09:53:11;24.20;92.60
32217;DHT22;67098;51.140;4.088;2023-07-31T09:55:38;24.30;92.30
32217;DHT22;67098;51.140;4.088;2023-07-31T09:58:08;24.40;92.10
32217;DHT22;67098;51.140;4.088;2023-07-31T10:00:35;24.30;92.30
32217;DHT22;67098;51.140;4.088;2023-07-31T10:03:09;24.40;92.10
32217;DHT22;67098;51.140;4.088;2023-07-31T10:05:40;24.20;92.70
32217;DHT22;67098;51.140;4.088;2023-07-31T10:08:09;24.30;92.60
32217;DHT22;67098;51.140;4.088;2023-07-31T10:10:41;24.30;92.60
32217;DHT22;67098;51.140;4.088;2023-07-31T10:13:08;24.00;92.80
32217;DHT22;67098;51.140;4.088;2023-07-31T10:15:34;23.90;93.00
32217;DHT22;67098;51.140;4.088;2023-07-31T10:18:01;23.70;93.40
32217;DHT22;67098;51.140;4.088;2023-07-31T10:20:29;23.70;93.30
32217;DHT22;67098;51.140;4.088;2023-07-31T10:22:55;23.80;93.30
32217;DHT22;67098;51.140;4.088;2023-07-31T10:25:22;23.70;93.30
32217;DHT22;67098;51.140;4.088;2023-07-31T10:27:49;23.50;93.40
32217;DHT22;67098;51.140;4.088;2023-07-31T10:30:17;23.60;93.50
32217;DHT22;67098;51.140;4.088;2023-07-31T10:32:45;23.70;93.50
32217;DHT22;67098;51.140;4.088;2023-07-31T10:35:12;23.40;93.40
32217;DHT22;67098;51.140;4.088;2023-07-31T10:37:39;23.40;93.60
32217;DHT22;67098;51.140;4.088;2023-07-31T10:42:44;23.40;94.00
32217;DHT22;67098;51.140;4.088;2023-07-31T10:45:10;23.20;94.60
32217;DHT22;67098;51.140;4.088;2023-07-31T10:47:46;23.20;94.70
32217;DHT22;67098;51.140;4.088;2023-07-31T10:50:20;23.30;94.80
32217;DHT22;67098;51.140;4.088;2023-07-31T10:52:51;23.70;94.80
32217;DHT22;67098;51.140;4.088;2023-07-31T11:00:31;23.80;94.60
32217;DHT22;67098;51.140;4.088;2023-07-31T11:03:04;23.70;94.60
32217;DHT22;67098;51.140;4.088;2023-07-31T11:10:50;23.50;94.90
32217;DHT22;67098;51.140;4.088;2023-07-31T11:13:16;23.50;94.90
32217;DHT22;67098;51.140;4.088;2023-07-31T11:15:42;23.70;94.50
32217;DHT22;67098;51.140;4.088;2023-07-31T11:18:08;23.70;94.20
32217;DHT22;67098;51.140;4.088;2023-07-31T11:20:37;23.70;94.60
32217;DHT22;67098;51.140;4.088;2023-07-31T11:23:07;23.60;94.60
32217;DHT22;67098;51.140;4.088;2023-07-31T11:25:34;23.60;94.50
32217;DHT22;67098;51.140;4.088;2023-07-31T11:28:10;23.50;94.70
32217;DHT22;67098;51.140;4.088;2023-07-31T11:30:36;23.40;95.00
32217;DHT22;67098;51.140;4.088;2023-07-31T11:33:04;23.30;95.00
32217;DHT22;67098;51.140;4.088;2023-07-31T11:35:35;23.20;95.00
32217;DHT22;67098;51.140;4.088;2023-07-31T11:38:01;23.10;95.30
32217;DHT22;67098;51.140;4.088;2023-07-31T11:40:28;23.20;95.20
32217;DHT22;67098;51.140;4.088;2023-07-31T11:42:56;23.20;95.00
32217;DHT22;67098;51.140;4.088;2023-07-31T11:45:25;23.00;95.30
32217;DHT22;67098;51.140;4.088;2023-07-31T11:47:51;22.90;95.50
32217;DHT22;67098;51.140;4.088;2023-07-31T11:50:18;22.90;95.60
32217;DHT22;67098;51.140;4.088;2023-07-31T11:52:45;23.00;95.30
32217;DHT22;67098;51.140;4.088;2023-07-31T11:55:12;23.00;95.20
32217;DHT22;67098;51.140;4.088;2023-07-31T11:57:39;23.10;95.30
32217;DHT22;67098;51.140;4.088;2023-07-31T12:00:08;22.90;95.60
32217;DHT22;67098;51.140;4.088;2023-07-31T12:02:36;23.00;95.40
32217;DHT22;67098;51.140;4.088;2023-07-31T12:05:04;23.30;95.20
32217;DHT22;67098;51.140;4.088;2023-07-31T12:07:50;23.40;94.90
32217;DHT22;67098;51.140;4.088;2023-07-31T12:10:45;23.50;94.70
32217;DHT22;67098;51.140;4.088;2023-07-31T12:13:25;23.90;94.50
32217;DHT22;67098;51.140;4.088;2023-07-31T12:15:55;24.00;94.40
32217;DHT22;67098;51.140;4.088;2023-07-31T12:18:24;24.10;94.00
32217;DHT22;67098;51.140;4.088;2023-07-31T12:21:00;24.10;93.80
32217;DHT22;67098;51.140;4.088;2023-07-31T12:26:05;24.00;93.90
32217;DHT22;67098;51.140;4.088;2023-07-31T12:28:54;23.70;94.10
32217;DHT22;67098;51.140;4.088;2023-07-31T12:31:22;23.50;93.90
32217;DHT22;67098;51.140;4.088;2023-07-31T12:33:50;23.40;94.40
32217;DHT22;67098;51.140;4.088;2023-07-31T12:36:23;23.30;94.60
32217;DHT22;67098;51.140;4.088;2023-07-31T12:38:50;23.20;94.40
32217;DHT22;67098;51.140;4.088;2023-07-31T12:41:16;23.10;94.80
32217;DHT22;67098;51.140;4.088;2023-07-31T12:43:43;23.10;94.90
32217;DHT22;67098;51.140;4.088;2023-07-31T12:46:09;23.30;94.90
32217;DHT22;67098;51.140;4.088;2023-07-31T12:48:35;23.30;95.20
32217;DHT22;67098;51.140;4.088;2023-07-31T12:51:02;23.20;95.40
32217;DHT22;67098;51.140;4.088;2023-07-31T12:53:28;23.20;95.60
32217;DHT22;67098;51.140;4.088;2023-07-31T12:55:54;23.20;95.80
32217;DHT22;67098;51.140;4.088;2023-07-31T12:58:20;23.10;96.00
32217;DHT22;67098;51.140;4.088;2023-07-31T13:00:46;23.30;96.00
32217;DHT22;67098;51.140;4.088;2023-07-31T13:03:12;23.20;96.00
32217;DHT22;67098;51.140;4.088;2023-07-31T13:05:37;23.20;96.20
32217;DHT22;67098;51.140;4.088;2023-07-31T13:08:03;22.90;96.40
32217;DHT22;67098;51.140;4.088;2023-07-31T13:10:29;22.80;96.70
32217;DHT22;67098;51.140;4.088;2023-07-31T13:12:56;22.70;96.80
32217;DHT22;67098;51.140;4.088;2023-07-31T13:15:22;22.70;97.20
32217;DHT22;67098;51.140;4.088;2023-07-31T13:17:47;22.70;97.20
32217;DHT22;67098;51.140;4.088;2023-07-31T13:20:13;22.80;97.10
32217;DHT22;67098;51.140;4.088;2023-07-31T13:22:40;22.70;97.10
32217;DHT22;67098;51.140;4.088;2023-07-31T13:25:06;22.70;97.20
32217;DHT22;67098;51.140;4.088;2023-07-31T13:27:32;22.60;97.30
32217;DHT22;67098;51.140;4.088;2023-07-31T13:29:58;22.60;97.40
32217;DHT22;67098;51.140;4.088;2023-07-31T13:32:23;22.70;97.30
32217;DHT22;67098;51.140;4.088;2023-07-31T13:34:50;22.70;97.10
32217;DHT22;67098;51.140;4.088;2023-07-31T13:37:16;22.60;97.10
32217;DHT22;67098;51.140;4.088;2023-07-31T13:39:42;22.40;97.20
32217;DHT22;67098;51.140;4.088;2023-07-31T13:42:08;22.30;97.50
32217;DHT22;67098;51.140;4.088;2023-07-31T13:44:35;22.00;98.20
32217;DHT22;67098;51.140;4.088;2023-07-31T13:47:01;21.90;98.20
32217;DHT22;67098;51.140;4.088;2023-07-31T13:49:27;21.80;98.60
32217;DHT22;67098;51.140;4.088;2023-07-31T13:51:53;21.70;98.70
32217;DHT22;67098;51.140;4.088;2023-07-31T13:54:19;21.70;98.60
32217;DHT22;67098;51.140;4.088;2023-07-31T13:56:45;21.70;98.50
32217;DHT22;67098;51.140;4.088;2023-07-31T13:59:11;21.70;99.00
32217;DHT22;67098;51.140;4.088;2023-07-31T14:01:37;21.70;98.80
32217;DHT22;67098;51.140;4.088;2023-07-31T14:04:03;21.60;99.00
32217;DHT22;67098;51.140;4.088;2023-07-31T14:06:29;21.60;99.30
32217;DHT22;67098;51.140;4.088;2023-07-31T14:08:55;21.50;99.20
32217;DHT22;67098;51.140;4.088;2023-07-31T14:11:22;21.60;99.10
32217;DHT22;67098;51.140;4.088;2023-07-31T14:13:47;21.60;98.90
32217;DHT22;67098;51.140;4.088;2023-07-31T14:16:13;21.60;98.90
32217;DHT22;67098;51.140;4.088;2023-07-31T14:18:39;21.70;98.80
32217;DHT22;67098;51.140;4.088;2023-07-31T14:21:05;21.90;98.80
32217;DHT22;67098;51.140;4.088;2023-07-31T14:23:31;21.80;98.70
32217;DHT22;67098;51.140;4.088;2023-07-31T14:25:57;21.70;98.70
32217;DHT22;67098;51.140;4.088;2023-07-31T14:28:22;21.80;98.80
32217;DHT22;67098;51.140;4.088;2023-07-31T14:30:48;21.70;98.90
32217;DHT22;67098;51.140;4.088;2023-07-31T14:33:14;21.70;99.00
32217;DHT22;67098;51.140;4.088;2023-07-31T14:35:40;21.90;98.80
32217;DHT22;67098;51.140;4.088;2023-07-31T14:38:05;21.90;98.70
32217;DHT22;67098;51.140;4.088;2023-07-31T14:40:32;21.80;98.60
32217;DHT22;67098;51.140;4.088;2023-07-31T14:42:57;21.80;98.70
32217;DHT22;67098;51.140;4.088;2023-07-31T14:45:23;21.80;99.00
32217;DHT22;67098;51.140;4.088;2023-07-31T14:47:49;21.80;98.90
32217;DHT22;67098;51.140;4.088;2023-07-31T14:50:15;21.80;98.80
32217;DHT22;67098;51.140;4.088;2023-07-31T14:52:41;21.80;99.00
32217;DHT22;67098;51.140;4.088;2023-07-31T14:55:07;21.60;99.20
32217;DHT22;67098;51.140;4.088;2023-07-31T14:57:34;21.70;99.00
32217;DHT22;67098;51.140;4.088;2023-07-31T15:00:00;21.60;99.00
32217;DHT22;67098;51.140;4.088;2023-07-31T15:02:26;21.60;99.20
32217;DHT22;67098;51.140;4.088;2023-07-31T15:04:53;21.60;99.10
32217;DHT22;67098;51.140;4.088;2023-07-31T15:07:19;21.40;99.60
32217;DHT22;67098;51.140;4.088;2023-07-31T15:09:44;21.50;99.40
32217;DHT22;67098;51.140;4.088;2023-07-31T15:12:10;21.50;99.50
32217;DHT22;67098;51.140;4.088;2023-07-31T15:14:36;21.50;99.40
32217;DHT22;67098;51.140;4.088;2023-07-31T15:17:02;21.50;99.40
32217;DHT22;67098;51.140;4.088;2023-07-31T15:19:28;21.30;99.90
32217;DHT22;67098;51.140;4.088;2023-07-31T15:21:54;21.30;99.90
32217;DHT22;67098;51.140;4.088;2023-07-31T15:24:20;21.30;99.90
32217;DHT22;67098;51.140;4.088;2023-07-31T15:26:46;21.20;99.90
32217;DHT22;67098;51.140;4.088;2023-07-31T15:29:12;21.30;99.90
32217;DHT22;67098;51.140;4.088;2023-07-31T15:31:43;21.30;99.90
32217;DHT22;67098;51.140;4.088;2023-07-31T15:34:09;21.30;99.90
32217;DHT22;67098;51.140;4.088;2023-07-31T15:36:35;21.20;99.90
32217;DHT22;67098;51.140;4.088;2023-07-31T15:39:00;21.20;99.90
32217;DHT22;67098;51.140;4.088;2023-07-31T15:41:26;21.20;99.90
32217;DHT22;67098;51.140;4.088;2023-07-31T15:43:52;21.20;99.90
32217;DHT22;67098;51.140;4.088;2023-07-31T15:46:18;21.10;99.90
32217;DHT22;67098;51.140;4.088;2023-07-31T15:48:44;21.10;99.90
32217;DHT22;67098;51.140;4.088;2023-07-31T15:51:10;21.00;99.90
32217;DHT22;67098;51.140;4.088;2023-07-31T15:53:36;21.20;99.90